createdAt,value
2018-12-06T00:02:04.057Z,100836.97
2018-12-06T00:04:32.983Z,100839.80
2018-12-06T00:07:01.883Z,100840.00
2018-12-06T00:09:30.777Z,100843.41
2018-12-06T00:11:59.686Z,100845.69
2018-12-06T00:14:28.593Z,100848.23
2018-12-06T00:16:57.501Z,100846.50
2018-12-06T00:19:26.408Z,100848.91
2018-12-06T00:21:55.326Z,100850.61
2018-12-06T00:24:24.238Z,100851.47
2018-12-06T00:26:53.416Z,100853.08
2018-12-06T00:29:22.321Z,100853.45
2018-12-06T00:34:34.452Z,100858.23
2018-12-06T00:37:03.356Z,100865.23
2018-12-06T00:39:32.255Z,100866.34
2018-12-06T00:42:01.166Z,100864.86
2018-12-06T00:44:30.061Z,100870.60
2018-12-06T00:46:58.971Z,100872.78
2018-12-06T00:49:27.885Z,100875.34
2018-12-06T00:51:56.789Z,100873.12
2018-12-06T00:54:25.702Z,100872.37
2018-12-06T00:56:54.671Z,100870.57
2018-12-06T00:59:23.577Z,100863.30
2018-12-06T01:01:53.414Z,100864.29
2018-12-06T01:04:22.563Z,100866.09
2018-12-06T01:06:51.477Z,100857.66
2018-12-06T01:09:20.405Z,100860.56
2018-12-06T01:11:49.314Z,100862.77
2018-12-06T01:14:20.279Z,100861.64
2018-12-06T01:16:49.187Z,100863.16
2018-12-06T01:19:18.088Z,100865.23
2018-12-06T01:21:47.005Z,100864.29
2018-12-06T01:24:15.910Z,100857.63
2018-12-06T01:26:44.812Z,100861.13
2018-12-06T01:29:13.744Z,100852.79
2018-12-06T01:31:42.677Z,100858.51
2018-12-06T01:34:11.574Z,100856.67
2018-12-06T01:36:40.468Z,100859.52
2018-12-06T01:39:09.452Z,100855.53
2018-12-06T01:41:38.403Z,100853.08
2018-12-06T01:44:07.301Z,100850.89
2018-12-06T01:46:36.201Z,100856.86
2018-12-06T01:49:05.108Z,100857.24
2018-12-06T01:51:34.004Z,100849.09
2018-12-06T01:54:02.896Z,100850.20
2018-12-06T01:56:31.812Z,100842.08
2018-12-06T01:59:00.726Z,100842.66
2018-12-06T02:01:29.646Z,100852.22
2018-12-06T02:03:58.542Z,100850.42
2018-12-06T02:06:27.433Z,100838.86
2018-12-06T02:08:56.456Z,100844.55
2018-12-06T02:11:25.361Z,100843.79
2018-12-06T02:13:54.261Z,100846.73
2018-12-06T02:16:23.186Z,100847.20
2018-12-06T02:18:52.382Z,100844.77
2018-12-06T02:21:21.287Z,100844.61
2018-12-06T02:23:50.268Z,100841.39
2018-12-06T02:26:19.192Z,100836.94
2018-12-06T02:28:48.167Z,100840.45
2018-12-06T02:31:17.121Z,100833.44
2018-12-06T02:33:46.037Z,100835.33
2018-12-06T02:36:14.925Z,100839.09
2018-12-06T02:38:43.835Z,100839.00
2018-12-06T02:41:12.864Z,100834.95
2018-12-06T02:43:41.777Z,100834.80
2018-12-06T02:46:10.673Z,100824.75
2018-12-06T02:48:39.593Z,100832.42
2018-12-06T02:51:08.509Z,100834.22
2018-12-06T02:53:37.426Z,100823.62
2018-12-06T02:56:06.340Z,100829.14
2018-12-06T02:58:35.261Z,100823.62
2018-12-06T03:01:04.396Z,100829.52
2018-12-06T03:03:33.376Z,100832.17
2018-12-06T03:06:02.280Z,100842.09
2018-12-06T03:08:31.168Z,100845.41
2018-12-06T03:11:00.060Z,100844.05
2018-12-06T03:13:28.990Z,100844.36
2018-12-06T03:15:57.896Z,100839.91
2018-12-06T03:18:26.819Z,100850.39
2018-12-06T03:20:55.722Z,100852.77
2018-12-06T03:23:25.238Z,100856.36
2018-12-06T03:25:54.141Z,100854.28
2018-12-06T03:28:23.067Z,100856.93
2018-12-06T03:30:51.978Z,100855.41
2018-12-06T03:33:20.918Z,100859.67
2018-12-06T03:35:49.936Z,100851.97
2018-12-06T03:38:18.849Z,100850.64
2018-12-06T03:40:47.758Z,100847.08
2018-12-06T03:43:16.668Z,100861.26
2018-12-06T03:45:45.577Z,100864.48
2018-12-06T03:48:14.500Z,100855.77
2018-12-06T03:50:43.423Z,100867.98
2018-12-06T03:53:12.330Z,100865.96
2018-12-06T03:55:41.249Z,100863.34
2018-12-06T03:58:10.152Z,100861.92
2018-12-06T04:00:39.097Z,100863.28
2018-12-06T04:03:08.174Z,100867.53
2018-12-06T04:05:37.081Z,100860.72
2018-12-06T04:08:05.990Z,100858.48
2018-12-06T04:10:34.878Z,100859.11
2018-12-06T04:13:03.818Z,100864.70
2018-12-06T04:15:32.709Z,100865.17
2018-12-06T04:18:01.634Z,100868.36
2018-12-06T04:20:30.570Z,100869.05
2018-12-06T04:22:59.497Z,100877.39
2018-12-06T04:25:28.393Z,100869.81
2018-12-06T04:27:57.314Z,100864.91
2018-12-06T04:30:26.223Z,100867.20
2018-12-06T04:32:55.129Z,100870.45
2018-12-06T04:35:24.044Z,100870.45
2018-12-06T04:37:53.029Z,100868.36
2018-12-06T04:40:21.937Z,100874.98
2018-12-06T04:42:50.831Z,100876.89
2018-12-06T04:45:19.757Z,100882.17
2018-12-06T04:47:48.670Z,100882.17
2018-12-06T04:50:17.586Z,100879.53
2018-12-06T04:52:46.483Z,100876.70
2018-12-06T04:55:15.388Z,100881.81
2018-12-06T04:57:44.282Z,100881.59
2018-12-06T05:00:13.220Z,100881.59
2018-12-06T05:02:42.142Z,100889.36
2018-12-06T05:05:11.101Z,100893.54
2018-12-06T05:07:39.992Z,100891.52
2018-12-06T05:10:08.924Z,100886.69
2018-12-06T05:12:37.818Z,100898.63
2018-12-06T05:15:06.719Z,100901.09
2018-12-06T05:17:35.604Z,100898.37
2018-12-06T05:20:04.562Z,100902.22
2018-12-06T05:22:33.474Z,100894.27
2018-12-06T05:25:02.392Z,100903.36
2018-12-06T05:27:31.303Z,100902.03
2018-12-06T05:30:00.244Z,100903.16
2018-12-06T05:32:29.144Z,100898.17
2018-12-06T05:34:58.121Z,100897.72
2018-12-06T05:37:27.106Z,100895.25
2018-12-06T05:39:56.016Z,100903.39
2018-12-06T05:42:24.941Z,100903.86
2018-12-06T05:44:53.873Z,100903.60
2018-12-06T05:47:22.869Z,100906.25
2018-12-06T05:49:51.773Z,100908.43
2018-12-06T05:52:20.683Z,100914.59
2018-12-06T05:54:49.595Z,100921.58
2018-12-06T05:57:18.493Z,100919.11
2018-12-06T05:59:47.489Z,100918.17
2018-12-06T06:02:16.401Z,100925.17
2018-12-06T06:04:45.309Z,100932.36
2018-12-06T06:07:14.217Z,100929.71
2018-12-06T06:09:43.121Z,100937.39
2018-12-06T06:12:12.024Z,100940.12
2018-12-06T06:14:40.913Z,100942.78
2018-12-06T06:17:09.827Z,100946.00
2018-12-06T06:19:38.742Z,100945.42
2018-12-06T06:22:07.722Z,100943.16
2018-12-06T06:24:36.622Z,100951.87
2018-12-06T06:27:05.604Z,100953.85
2018-12-06T06:29:34.552Z,100952.23
2018-12-06T06:32:03.470Z,100956.78
2018-12-06T06:34:32.373Z,100960.95
2018-12-06T06:37:01.278Z,100957.36
2018-12-06T06:39:30.198Z,100954.53
2018-12-06T06:41:59.096Z,100952.22
2018-12-06T06:44:28.000Z,100950.62
2018-12-06T06:46:56.894Z,100945.99
2018-12-06T06:49:25.840Z,100937.45
2018-12-06T06:51:54.754Z,100947.12
2018-12-06T06:54:23.673Z,100939.91
2018-12-06T06:56:52.567Z,100949.77
2018-12-06T06:59:26.061Z,100953.91
2018-12-06T07:01:52.448Z,100958.25
2018-12-06T07:04:21.360Z,100953.51
2018-12-06T07:06:50.314Z,100954.65
2018-12-06T07:09:19.222Z,100963.84
2018-12-06T07:11:48.154Z,100955.43
2018-12-06T07:14:17.102Z,100965.84
2018-12-06T07:16:46.039Z,100959.74
2018-12-06T07:19:14.941Z,100959.56
2018-12-06T07:21:43.869Z,100959.94
2018-12-06T07:24:12.768Z,100958.04
2018-12-06T07:26:41.756Z,100965.45
2018-12-06T07:29:10.799Z,100964.22
2018-12-06T07:31:39.701Z,100966.59
2018-12-06T07:34:08.589Z,100966.52
2018-12-06T07:36:37.484Z,100963.48
2018-12-06T07:39:08.406Z,100956.92
2018-12-06T07:41:37.309Z,100961.57
2018-12-06T07:44:20.839Z,100967.37
2018-12-06T07:46:49.763Z,100963.19
2018-12-06T07:49:18.666Z,100962.21
2018-12-06T07:51:47.583Z,100964.51
2018-12-06T07:54:16.474Z,100960.78
2018-12-06T07:56:45.391Z,100959.94
2018-12-06T07:59:14.315Z,100956.66
2018-12-06T08:01:43.510Z,100963.07
2018-12-06T08:04:12.396Z,100970.81
2018-12-06T08:06:41.313Z,100968.31
2018-12-06T08:09:10.676Z,100965.42
2018-12-06T08:11:39.570Z,100973.58
2018-12-06T08:14:08.507Z,100974.72
2018-12-06T08:16:37.496Z,100972.53
2018-12-06T08:19:06.397Z,100977.46
2018-12-06T08:21:35.310Z,100975.77
2018-12-06T08:24:04.262Z,100974.14
2018-12-06T08:26:33.182Z,100980.55
2018-12-06T08:29:02.099Z,100979.03
2018-12-06T08:31:31.993Z,100976.14
2018-12-06T08:34:06.129Z,100975.19
2018-12-06T08:36:31.900Z,100972.58
2018-12-06T08:39:00.831Z,100964.61
2018-12-06T08:41:29.754Z,100964.80
2018-12-06T08:43:58.694Z,100965.52
2018-12-06T08:46:27.662Z,100962.23
2018-12-06T08:49:02.832Z,100959.56
2018-12-06T08:51:27.621Z,100965.58
2018-12-06T08:53:56.513Z,100953.45
2018-12-06T08:56:25.432Z,100956.42
2018-12-06T08:58:54.351Z,100948.45
2018-12-06T09:01:23.259Z,100952.67
2018-12-06T09:03:52.161Z,100961.11
2018-12-06T09:06:21.434Z,100960.33
2018-12-06T09:08:50.425Z,100966.11
2018-12-06T09:11:19.790Z,100952.81
2018-12-06T09:13:48.788Z,100953.05
2018-12-06T09:16:18.219Z,100940.37
2018-12-06T09:18:47.587Z,100943.03
2018-12-06T09:21:16.541Z,100946.91
2018-12-06T09:23:45.686Z,100939.13
2018-12-06T09:26:20.881Z,100939.17
2018-12-06T09:28:49.782Z,100948.94
2018-12-06T09:31:19.268Z,100945.78
2018-12-06T09:34:06.277Z,100945.91
2018-12-06T09:36:35.940Z,100945.41
2018-12-06T09:39:07.100Z,100943.98
2018-12-06T09:41:37.924Z,100945.30
2018-12-06T09:44:06.883Z,100938.03
2018-12-06T09:46:35.804Z,100939.98
2018-12-06T09:49:06.966Z,100933.62
2018-12-06T09:51:35.895Z,100932.21
2018-12-06T09:54:04.846Z,100929.48
2018-12-06T09:56:33.742Z,100929.75
2018-12-06T09:59:02.680Z,100923.34
2018-12-06T10:01:31.619Z,100935.36
2018-12-06T10:04:00.528Z,100936.64
2018-12-06T10:06:29.451Z,100931.16
2018-12-06T10:08:58.362Z,100921.75
2018-12-06T10:11:27.894Z,100920.74
2018-12-06T10:13:56.803Z,100916.92
2018-12-06T10:16:25.710Z,100907.91
2018-12-06T10:18:54.657Z,100908.80
2018-12-06T10:21:23.660Z,100906.88
2018-12-06T10:23:54.702Z,100903.98
2018-12-06T10:26:23.615Z,100906.05
2018-12-06T10:28:52.516Z,100907.17
2018-12-06T10:31:21.417Z,100908.39
2018-12-06T10:33:50.375Z,100904.87
2018-12-06T10:36:19.283Z,100911.66
2018-12-06T10:38:48.165Z,100906.05
2018-12-06T10:41:17.071Z,100907.27
2018-12-06T10:43:45.963Z,100906.81
2018-12-06T10:46:14.872Z,100905.70
2018-12-06T10:48:43.765Z,100902.19
2018-12-06T10:51:23.597Z,100894.44
2018-12-06T10:53:52.506Z,100881.48
2018-12-06T10:56:21.437Z,100878.81
2018-12-06T10:58:50.350Z,100875.03
2018-12-06T11:01:21.668Z,100875.77
2018-12-06T11:03:59.517Z,100869.95
2018-12-06T11:06:28.480Z,100869.95
2018-12-06T11:08:57.386Z,100866.08
2018-12-06T11:11:26.547Z,100863.62
2018-12-06T11:13:55.568Z,100872.25
2018-12-06T11:16:24.505Z,100872.25
2018-12-06T11:18:53.401Z,100875.16
2018-12-06T11:21:22.323Z,100881.12
2018-12-06T11:23:51.243Z,100879.17
2018-12-06T11:26:20.176Z,100878.08
2018-12-06T11:28:49.093Z,100871.42
2018-12-06T11:31:17.998Z,100878.19
2018-12-06T11:33:46.989Z,100872.36
2018-12-06T11:36:15.904Z,100867.52
2018-12-06T11:38:44.792Z,100867.91
2018-12-06T11:41:13.714Z,100857.35
2018-12-06T11:43:42.630Z,100844.36
2018-12-06T11:46:11.541Z,100847.28
2018-12-06T11:48:40.455Z,100841.45
2018-12-06T11:51:09.382Z,100851.63
2018-12-06T11:53:38.294Z,100841.20
2018-12-06T11:56:07.211Z,100837.67
2018-12-06T11:58:36.105Z,100834.78
2018-12-06T12:01:05.060Z,100831.13
2018-12-06T12:03:34.069Z,100832.97
2018-12-06T12:06:03.027Z,100838.17
2018-12-06T12:08:31.924Z,100832.71
2018-12-06T12:11:00.829Z,100826.17
2018-12-06T12:13:29.712Z,100822.88
2018-12-06T12:15:58.639Z,100825.31
2018-12-06T12:18:27.553Z,100826.65
2018-12-06T12:20:56.489Z,100824.11
2018-12-06T12:23:25.421Z,100814.03
2018-12-06T12:25:54.330Z,100813.92
2018-12-06T12:28:23.225Z,100815.50
2018-12-06T12:30:52.116Z,100818.99
2018-12-06T12:33:21.010Z,100816.83
2018-12-06T12:35:49.926Z,100811.05
2018-12-06T12:38:18.842Z,100823.03
2018-12-06T12:40:47.766Z,100813.08
2018-12-06T12:43:16.673Z,100813.94
2018-12-06T12:45:45.594Z,100815.73
2018-12-06T12:48:14.509Z,100816.00
2018-12-06T12:50:43.422Z,100816.34
2018-12-06T12:53:12.323Z,100819.27
2018-12-06T12:55:41.238Z,100826.20
2018-12-06T12:58:10.145Z,100836.02
2018-12-06T13:00:39.071Z,100836.51
2018-12-06T13:03:07.974Z,100841.94
2018-12-06T13:05:36.878Z,100840.13
2018-12-06T13:08:05.785Z,100842.20
2018-12-06T13:10:34.706Z,100836.13
2018-12-06T13:13:03.610Z,100835.26
2018-12-06T13:15:32.520Z,100835.75
2018-12-06T13:18:01.425Z,100841.30
2018-12-06T13:20:30.334Z,100831.88
2018-12-06T13:22:59.234Z,100835.36
2018-12-06T13:25:28.128Z,100831.84
2018-12-06T13:27:57.034Z,100828.22
2018-12-06T13:30:25.940Z,100826.48
2018-12-06T13:32:54.858Z,100833.04
2018-12-06T13:35:23.783Z,100830.83
2018-12-06T13:37:52.698Z,100827.30
2018-12-06T13:40:21.625Z,100823.64
2018-12-06T13:42:50.538Z,100823.49
2018-12-06T13:45:19.445Z,100820.97
2018-12-06T13:47:48.349Z,100830.25
2018-12-06T13:50:17.280Z,100828.91
2018-12-06T13:52:46.181Z,100824.55
2018-12-06T13:55:15.101Z,100828.50
2018-12-06T13:57:44.022Z,100830.19
2018-12-06T14:00:12.940Z,100831.95
2018-12-06T14:02:41.844Z,100826.87
2018-12-06T14:05:10.756Z,100821.39
2018-12-06T14:07:39.669Z,100827.52
2018-12-06T14:10:08.579Z,100821.55
2018-12-06T14:12:38.014Z,100819.13
2018-12-06T14:15:06.938Z,100818.47
2018-12-06T14:17:35.844Z,100822.67
2018-12-06T14:20:05.231Z,100826.87
2018-12-06T14:22:34.140Z,100833.98
2018-12-06T14:25:03.062Z,100835.60
2018-12-06T14:27:31.980Z,100837.59
2018-12-06T14:30:00.891Z,100840.08
2018-12-06T14:32:29.814Z,100836.91
2018-12-06T14:34:58.717Z,100830.85
2018-12-06T14:37:27.623Z,100822.37
2018-12-06T14:39:56.534Z,100822.06
2018-12-06T14:42:25.433Z,100820.05
2018-12-06T14:44:54.339Z,100824.83
2018-12-06T14:47:23.250Z,100823.19
2018-12-06T14:49:52.154Z,100827.00
2018-12-06T14:52:21.062Z,100829.52
2018-12-06T14:54:49.953Z,100827.23
2018-12-06T14:57:18.882Z,100827.23
2018-12-06T14:59:47.794Z,100825.16
2018-12-06T15:02:16.712Z,100834.08
2018-12-06T15:04:45.603Z,100830.05
2018-12-06T15:07:14.517Z,100825.97
2018-12-06T15:09:43.414Z,100820.28
2018-12-06T15:12:12.325Z,100820.85
2018-12-06T15:14:41.213Z,100819.20
2018-12-06T15:17:10.138Z,100815.52
2018-12-06T15:19:39.038Z,100819.66
2018-12-06T15:22:07.970Z,100817.95
2018-12-06T15:24:36.912Z,100817.01
2018-12-06T15:27:05.809Z,100815.63
2018-12-06T15:29:34.750Z,100826.67
2018-12-06T15:32:03.675Z,100827.83
2018-12-06T15:34:32.565Z,100825.64
2018-12-06T15:37:01.512Z,100828.05
2018-12-06T15:39:30.419Z,100831.48
2018-12-06T15:41:59.340Z,100831.09
2018-12-06T15:44:28.241Z,100833.51
2018-12-06T15:46:57.144Z,100835.31
2018-12-06T15:49:26.037Z,100838.10
2018-12-06T15:51:54.951Z,100843.41
2018-12-06T15:54:23.853Z,100836.02
2018-12-06T15:56:52.805Z,100832.23
2018-12-06T15:59:21.709Z,100839.77
2018-12-06T16:01:50.727Z,100841.02
2018-12-06T16:04:19.621Z,100845.79
2018-12-06T16:06:48.542Z,100849.20
2018-12-06T16:09:17.506Z,100845.79
2018-12-06T16:11:46.401Z,100858.48
2018-12-06T16:14:15.307Z,100858.87
2018-12-06T16:16:44.225Z,100865.03
2018-12-06T16:19:13.141Z,100864.90
2018-12-06T16:21:42.072Z,100861.39
2018-12-06T16:24:10.975Z,100867.55
2018-12-06T16:26:39.896Z,100873.23
2018-12-06T16:29:08.791Z,100876.17
2018-12-06T16:31:37.697Z,100874.47
2018-12-06T16:34:06.628Z,100871.72
2018-12-06T16:36:35.556Z,100881.48
2018-12-06T16:39:05.884Z,100878.92
2018-12-06T16:41:34.791Z,100871.91
2018-12-06T16:44:04.173Z,100878.45
2018-12-06T16:46:33.121Z,100874.19
2018-12-06T16:49:09.854Z,100878.92
2018-12-06T16:51:33.339Z,100883.28
2018-12-06T16:54:02.319Z,100892.61
2018-12-06T16:56:31.228Z,100900.35
2018-12-06T16:59:00.116Z,100898.55
2018-12-06T17:02:31.981Z,100895.64
2018-12-06T17:05:01.458Z,100892.05
2018-12-06T17:07:30.370Z,100891.98
2018-12-06T17:09:59.272Z,100898.52
2018-12-06T17:12:29.299Z,100901.94
2018-12-06T17:14:58.202Z,100899.85
2018-12-06T17:17:27.114Z,100895.77
2018-12-06T17:19:56.055Z,100885.01
2018-12-06T17:22:24.957Z,100892.02
2018-12-06T17:24:53.869Z,100887.94
2018-12-06T17:27:22.790Z,100890.44
2018-12-06T17:29:51.878Z,100887.59
2018-12-06T17:32:20.996Z,100889.68
2018-12-06T17:34:49.909Z,100887.78
2018-12-06T17:37:18.858Z,100892.23
2018-12-06T17:39:47.800Z,100889.48
2018-12-06T17:42:16.768Z,100886.84
2018-12-06T17:44:45.700Z,100888.16
2018-12-06T17:47:14.665Z,100880.84
2018-12-06T17:49:43.585Z,100884.16
2018-12-06T17:52:12.501Z,100884.34
2018-12-06T17:54:41.406Z,100878.47
2018-12-06T17:57:10.346Z,100881.59
2018-12-06T17:59:39.280Z,100875.62
2018-12-06T18:02:08.242Z,100872.78
2018-12-06T18:04:37.195Z,100874.68
2018-12-06T18:07:06.094Z,100867.89
2018-12-06T18:09:34.997Z,100858.41
2018-12-06T18:12:03.929Z,100857.28
2018-12-06T18:14:32.878Z,100849.92
2018-12-06T18:17:01.795Z,100850.48
2018-12-06T18:19:30.735Z,100852.77
2018-12-06T18:22:01.293Z,100850.11
2018-12-06T18:24:30.586Z,100853.05
2018-12-06T18:26:59.587Z,100856.80
2018-12-06T18:29:28.574Z,100853.90
2018-12-06T18:31:57.473Z,100849.70
2018-12-06T18:34:26.426Z,100845.47
2018-12-06T18:36:55.328Z,100844.71
2018-12-06T18:39:24.238Z,100840.83
2018-12-06T18:41:53.186Z,100843.09
2018-12-06T18:44:22.105Z,100842.72
2018-12-06T18:46:51.069Z,100832.68
2018-12-06T18:49:20.056Z,100837.03
2018-12-06T18:51:48.989Z,100833.06
2018-12-06T18:54:17.885Z,100842.34
2018-12-06T18:56:46.797Z,100841.02
2018-12-06T18:59:15.708Z,100844.61
2018-12-06T19:01:44.621Z,100851.06
2018-12-06T19:04:13.627Z,100842.34
2018-12-06T19:06:44.895Z,100843.52
2018-12-06T19:09:14.038Z,100844.10
2018-12-06T19:12:14.385Z,100840.13
2018-12-06T19:14:43.282Z,100846.23
2018-12-06T19:17:12.198Z,100843.41
2018-12-06T19:19:41.135Z,100841.81
2018-12-06T19:22:10.067Z,100847.41
2018-12-06T19:24:38.987Z,100847.69
2018-12-06T19:27:07.942Z,100852.56
2018-12-06T19:29:36.883Z,100851.48
2018-12-06T19:32:05.889Z,100855.61
2018-12-06T19:34:35.090Z,100854.60
2018-12-06T19:37:04.006Z,100864.86
2018-12-06T19:39:32.944Z,100866.38
2018-12-06T19:42:01.859Z,100868.25
2018-12-06T19:44:30.835Z,100872.52
2018-12-06T19:46:59.815Z,100877.41
2018-12-06T19:49:28.819Z,100874.53
2018-12-06T19:51:57.733Z,100873.83
2018-12-06T19:54:26.655Z,100876.08
2018-12-06T19:56:55.593Z,100871.42
2018-12-06T19:59:24.518Z,100871.87
2018-12-06T20:01:53.436Z,100875.83
2018-12-06T20:04:22.388Z,100866.08
2018-12-06T20:06:51.296Z,100864.62
2018-12-06T20:09:20.221Z,100862.72
2018-12-06T20:11:49.224Z,100857.05
2018-12-06T20:14:18.154Z,100862.57
2018-12-06T20:16:47.174Z,100861.61
2018-12-06T20:19:16.107Z,100860.91
2018-12-06T20:21:45.053Z,100857.69
2018-12-06T20:24:13.986Z,100867.02
2018-12-06T20:26:42.990Z,100865.66
2018-12-06T20:29:11.953Z,100876.14
2018-12-06T20:31:40.898Z,100869.34
2018-12-06T20:34:09.847Z,100874.42
2018-12-06T20:36:38.815Z,100875.32
2018-12-06T20:39:08.377Z,100879.17
2018-12-06T20:41:37.381Z,100880.38
2018-12-06T20:44:06.349Z,100880.56
2018-12-06T20:46:35.260Z,100875.70
2018-12-06T20:49:04.183Z,100878.22
2018-12-06T20:51:33.480Z,100878.25
2018-12-06T20:54:02.554Z,100886.05
2018-12-06T20:56:31.473Z,100889.49
2018-12-06T20:59:00.382Z,100885.00
2018-12-06T21:01:29.292Z,100882.49
2018-12-06T21:03:58.312Z,100885.63
2018-12-06T21:06:27.258Z,100891.88
2018-12-06T21:08:56.193Z,100892.86
2018-12-06T21:11:25.109Z,100893.43
2018-12-06T21:13:54.025Z,100891.94
2018-12-06T21:16:22.934Z,100881.36
2018-12-06T21:18:51.852Z,100879.10
2018-12-06T21:21:20.750Z,100882.30
2018-12-06T21:23:49.668Z,100871.63
2018-12-06T21:26:18.573Z,100877.72
2018-12-06T21:28:47.489Z,100879.33
2018-12-06T21:31:16.394Z,100875.05
2018-12-06T21:33:45.292Z,100870.84
2018-12-06T21:36:14.204Z,100868.84
2018-12-06T21:38:43.134Z,100862.91
2018-12-06T21:41:12.073Z,100869.84
2018-12-06T21:43:40.992Z,100874.43
2018-12-06T21:46:09.945Z,100872.99
2018-12-06T21:48:38.887Z,100870.23
2018-12-06T21:51:07.800Z,100871.48
2018-12-06T21:53:36.714Z,100875.63
2018-12-06T21:56:05.645Z,100878.16
2018-12-06T21:58:34.578Z,100876.22
2018-12-06T22:01:03.497Z,100870.94
2018-12-06T22:03:32.433Z,100871.52
2018-12-06T22:06:01.361Z,100868.88
2018-12-06T22:08:30.290Z,100856.05
2018-12-06T22:10:59.202Z,100858.88
2018-12-06T22:13:28.101Z,100849.36
2018-12-06T22:15:56.996Z,100854.02
2018-12-06T22:18:25.962Z,100850.98
2018-12-06T22:20:56.361Z,100852.70
2018-12-06T22:23:25.485Z,100843.99
2018-12-06T22:25:54.396Z,100841.19
2018-12-06T22:28:23.377Z,100834.97
2018-12-06T22:30:52.281Z,100832.88
2018-12-06T22:33:21.248Z,100840.64
2018-12-06T22:35:50.154Z,100837.41
2018-12-06T22:38:19.045Z,100841.96
2018-12-06T22:40:47.969Z,100843.83
2018-12-06T22:43:16.874Z,100847.41
2018-12-06T22:46:01.213Z,100842.05
2018-12-06T22:48:30.187Z,100847.41
2018-12-06T22:50:59.137Z,100842.12
2018-12-06T22:53:28.043Z,100836.61
2018-12-06T22:55:57.004Z,100835.26
2018-12-06T22:58:25.910Z,100831.65
2018-12-06T23:00:56.947Z,100836.13
2018-12-06T23:03:26.933Z,100833.64
2018-12-06T23:05:55.894Z,100836.95
2018-12-06T23:08:24.803Z,100836.56
2018-12-06T23:10:53.730Z,100835.89
2018-12-06T23:13:22.642Z,100839.70
2018-12-06T23:15:51.551Z,100830.07
2018-12-06T23:18:20.481Z,100821.61
2018-12-06T23:20:49.400Z,100819.51
2018-12-06T23:23:18.497Z,100819.08
2018-12-06T23:25:47.396Z,100823.84
2018-12-06T23:28:16.317Z,100818.28
2018-12-06T23:30:45.223Z,100818.00
2018-12-06T23:33:14.137Z,100813.37
2018-12-06T23:35:43.058Z,100818.02
2018-12-06T23:38:11.979Z,100815.33
2018-12-06T23:40:40.909Z,100811.31
2018-12-06T23:43:09.962Z,100815.20
2018-12-06T23:45:38.875Z,100815.36
2018-12-06T23:48:07.792Z,100815.50
2018-12-06T23:50:36.716Z,100819.39
2018-12-06T23:53:05.630Z,100815.98
2018-12-06T23:55:34.529Z,100812.27
2018-12-06T23:58:03.434Z,100809.47
